sensor_id;sensor_type;location;lat;lon;timestamp;P1;durP1;ratioP1;P2;durP2;ratioP2
60726;SDS011;46577;49.004;12.120;2022-09-14T00:00:27;12.20;;;9.70;;
60726;SDS011;46577;49.004;12.120;2022-09-14T00:02:53;13.73;;;11.10;;
60726;SDS011;46577;49.004;12.120;2022-09-14T00:05:18;12.60;;;10.33;;
60726;SDS011;46577;49.004;12.120;2022-09-14T00:07:44;12.97;;;11.50;;
60726;SDS011;46577;49.004;12.120;2022-09-14T00:10:09;12.43;;;10.90;;
60726;SDS011;46577;49.004;12.120;2022-09-14T00:12:35;14.30;;;11.57;;
60726;SDS011;46577;49.004;12.120;2022-09-14T00:15:01;13.87;;;10.53;;
60726;SDS011;46577;49.004;12.120;2022-09-14T00:17:26;30.10;;;11.37;;
60726;SDS011;46577;49.004;12.120;2022-09-14T00:19:52;13.43;;;9.50;;
60726;SDS011;46577;49.004;12.120;2022-09-14T00:22:18;12.80;;;10.90;;
60726;SDS011;46577;49.004;12.120;2022-09-14T00:24:43;14.23;;;11.17;;
60726;SDS011;46577;49.004;12.120;2022-09-14T00:27:09;13.70;;;10.47;;
60726;SDS011;46577;49.004;12.120;2022-09-14T00:29:35;12.70;;;10.10;;
60726;SDS011;46577;49.004;12.120;2022-09-14T00:32:01;15.33;;;10.90;;
60726;SDS011;46577;49.004;12.120;2022-09-14T00:34:27;18.83;;;11.20;;
60726;SDS011;46577;49.004;12.120;2022-09-14T00:36:53;15.53;;;10.70;;
60726;SDS011;46577;49.004;12.120;2022-09-14T00:39:19;12.67;;;10.30;;
60726;SDS011;46577;49.004;12.120;2022-09-14T00:41:48;16.53;;;11.03;;
60726;SDS011;46577;49.004;12.120;2022-09-14T00:46:47;16.40;;;11.03;;
60726;SDS011;46577;49.004;12.120;2022-09-14T00:49:16;16.17;;;10.27;;
60726;SDS011;46577;49.004;12.120;2022-09-14T00:51:58;16.50;;;10.97;;
60726;SDS011;46577;49.004;12.120;2022-09-14T00:54:29;14.90;;;11.07;;
60726;SDS011;46577;49.004;12.120;2022-09-14T00:56:56;20.07;;;11.23;;
60726;SDS011;46577;49.004;12.120;2022-09-14T00:59:26;22.17;;;11.80;;
60726;SDS011;46577;49.004;12.120;2022-09-14T01:01:55;13.13;;;10.23;;
60726;SDS011;46577;49.004;12.120;2022-09-14T01:04:21;13.17;;;11.37;;
60726;SDS011;46577;49.004;12.120;2022-09-14T01:15:20;12.80;;;10.53;;
60726;SDS011;46577;49.004;12.120;2022-09-14T01:20:26;20.63;;;10.30;;
60726;SDS011;46577;49.004;12.120;2022-09-14T01:23:00;23.73;;;11.30;;
60726;SDS011;46577;49.004;12.120;2022-09-14T01:28:52;13.33;;;11.10;;
60726;SDS011;46577;49.004;12.120;2022-09-14T01:31:29;15.60;;;12.30;;
60726;SDS011;46577;49.004;12.120;2022-09-14T01:34:05;25.27;;;13.87;;
60726;SDS011;46577;49.004;12.120;2022-09-14T01:36:37;15.90;;;12.70;;
60726;SDS011;46577;49.004;12.120;2022-09-14T01:39:06;16.77;;;12.93;;
60726;SDS011;46577;49.004;12.120;2022-09-14T01:41:33;15.00;;;10.90;;
60726;SDS011;46577;49.004;12.120;2022-09-14T01:44:04;16.43;;;11.63;;
60726;SDS011;46577;49.004;12.120;2022-09-14T01:46:37;21.97;;;11.60;;
60726;SDS011;46577;49.004;12.120;2022-09-14T01:49:16;16.43;;;11.57;;
60726;SDS011;46577;49.004;12.120;2022-09-14T01:51:49;15.57;;;11.90;;
60726;SDS011;46577;49.004;12.120;2022-09-14T01:54:27;18.00;;;12.00;;
60726;SDS011;46577;49.004;12.120;2022-09-14T01:57:18;20.40;;;11.60;;
60726;SDS011;46577;49.004;12.120;2022-09-14T01:59:48;18.43;;;12.00;;
60726;SDS011;46577;49.004;12.120;2022-09-14T02:07:51;15.97;;;11.97;;
60726;SDS011;46577;49.004;12.120;2022-09-14T02:10:17;18.07;;;13.33;;
60726;SDS011;46577;49.004;12.120;2022-09-14T02:12:43;18.53;;;12.90;;
60726;SDS011;46577;49.004;12.120;2022-09-14T02:15:10;20.80;;;14.47;;
60726;SDS011;46577;49.004;12.120;2022-09-14T02:17:37;19.20;;;14.30;;
60726;SDS011;46577;49.004;12.120;2022-09-14T02:20:05;21.00;;;12.90;;
60726;SDS011;46577;49.004;12.120;2022-09-14T02:22:33;17.97;;;12.80;;
60726;SDS011;46577;49.004;12.120;2022-09-14T02:24:59;18.40;;;13.27;;
60726;SDS011;46577;49.004;12.120;2022-09-14T02:27:26;23.20;;;13.90;;
60726;SDS011;46577;49.004;12.120;2022-09-14T02:29:52;16.07;;;11.77;;
60726;SDS011;46577;49.004;12.120;2022-09-14T02:57:23;19.17;;;13.40;;
60726;SDS011;46577;49.004;12.120;2022-09-14T02:59:51;18.00;;;12.70;;
60726;SDS011;46577;49.004;12.120;2022-09-14T03:02:17;16.77;;;12.97;;
60726;SDS011;46577;49.004;12.120;2022-09-14T03:04:43;17.93;;;13.13;;
60726;SDS011;46577;49.004;12.120;2022-09-14T03:07:09;19.23;;;13.50;;
60726;SDS011;46577;49.004;12.120;2022-09-14T03:09:34;27.47;;;14.90;;
60726;SDS011;46577;49.004;12.120;2022-09-14T03:12:00;20.80;;;13.60;;
60726;SDS011;46577;49.004;12.120;2022-09-14T03:14:26;16.63;;;13.90;;
60726;SDS011;46577;49.004;12.120;2022-09-14T03:16:52;26.17;;;13.53;;
60726;SDS011;46577;49.004;12.120;2022-09-14T03:19:17;16.77;;;13.07;;
60726;SDS011;46577;49.004;12.120;2022-09-14T03:21:43;17.60;;;13.00;;
60726;SDS011;46577;49.004;12.120;2022-09-14T03:24:08;23.00;;;13.73;;
60726;SDS011;46577;49.004;12.120;2022-09-14T03:26:34;19.63;;;14.10;;
60726;SDS011;46577;49.004;12.120;2022-09-14T03:29:03;19.53;;;14.27;;
60726;SDS011;46577;49.004;12.120;2022-09-14T03:31:32;17.77;;;13.90;;
60726;SDS011;46577;49.004;12.120;2022-09-14T03:33:59;23.50;;;13.80;;
60726;SDS011;46577;49.004;12.120;2022-09-14T03:36:27;24.33;;;13.60;;
60726;SDS011;46577;49.004;12.120;2022-09-14T03:38:55;16.60;;;13.23;;
60726;SDS011;46577;49.004;12.120;2022-09-14T03:41:22;17.07;;;13.10;;
60726;SDS011;46577;49.004;12.120;2022-09-14T03:43:48;29.77;;;14.87;;
60726;SDS011;46577;49.004;12.120;2022-09-14T03:46:14;23.57;;;14.17;;
60726;SDS011;46577;49.004;12.120;2022-09-14T03:48:42;22.07;;;14.53;;
60726;SDS011;46577;49.004;12.120;2022-09-14T03:51:08;19.47;;;14.80;;
60726;SDS011;46577;49.004;12.120;2022-09-14T03:53:35;23.67;;;15.93;;
60726;SDS011;46577;49.004;12.120;2022-09-14T03:56:08;22.03;;;14.90;;
60726;SDS011;46577;49.004;12.120;2022-09-14T03:58:35;24.47;;;16.30;;
60726;SDS011;46577;49.004;12.120;2022-09-14T04:01:05;20.27;;;16.37;;
60726;SDS011;46577;49.004;12.120;2022-09-14T04:03:32;25.73;;;15.00;;
60726;SDS011;46577;49.004;12.120;2022-09-14T04:05:58;17.30;;;13.33;;
60726;SDS011;46577;49.004;12.120;2022-09-14T04:08:24;19.40;;;15.17;;
60726;SDS011;46577;49.004;12.120;2022-09-14T04:10:50;25.13;;;15.90;;
60726;SDS011;46577;49.004;12.120;2022-09-14T04:13:15;22.37;;;15.33;;
60726;SDS011;46577;49.004;12.120;2022-09-14T04:15:41;26.13;;;15.33;;
60726;SDS011;46577;49.004;12.120;2022-09-14T04:18:06;22.20;;;15.43;;
60726;SDS011;46577;49.004;12.120;2022-09-14T04:20:32;20.40;;;14.90;;
60726;SDS011;46577;49.004;12.120;2022-09-14T04:22:58;18.20;;;14.10;;
60726;SDS011;46577;49.004;12.120;2022-09-14T04:25:23;20.33;;;15.07;;
60726;SDS011;46577;49.004;12.120;2022-09-14T04:27:49;21.77;;;16.13;;
60726;SDS011;46577;49.004;12.120;2022-09-14T04:30:15;24.07;;;16.23;;
60726;SDS011;46577;49.004;12.120;2022-09-14T04:32:40;23.53;;;15.23;;
60726;SDS011;46577;49.004;12.120;2022-09-14T04:35:07;23.37;;;15.10;;
60726;SDS011;46577;49.004;12.120;2022-09-14T04:37:33;22.03;;;15.90;;
60726;SDS011;46577;49.004;12.120;2022-09-14T04:39:59;16.93;;;14.57;;
60726;SDS011;46577;49.004;12.120;2022-09-14T04:42:24;22.30;;;14.80;;
60726;SDS011;46577;49.004;12.120;2022-09-14T04:44:50;19.73;;;15.40;;
60726;SDS011;46577;49.004;12.120;2022-09-14T04:47:15;19.33;;;13.57;;
60726;SDS011;46577;49.004;12.120;2022-09-14T04:49:41;25.80;;;15.80;;
60726;SDS011;46577;49.004;12.120;2022-09-14T04:52:07;22.07;;;16.73;;
60726;SDS011;46577;49.004;12.120;2022-09-14T04:54:32;24.67;;;16.60;;
60726;SDS011;46577;49.004;12.120;2022-09-14T04:56:58;23.97;;;16.43;;
60726;SDS011;46577;49.004;12.120;2022-09-14T04:59:23;40.27;;;18.90;;
60726;SDS011;46577;49.004;12.120;2022-09-14T05:01:49;29.57;;;18.20;;
60726;SDS011;46577;49.004;12.120;2022-09-14T05:04:14;23.93;;;17.10;;
60726;SDS011;46577;49.004;12.120;2022-09-14T05:06:41;27.13;;;17.93;;
60726;SDS011;46577;49.004;12.120;2022-09-14T05:09:14;29.30;;;18.70;;
60726;SDS011;46577;49.004;12.120;2022-09-14T05:11:42;25.77;;;18.20;;
60726;SDS011;46577;49.004;12.120;2022-09-14T05:14:09;25.47;;;15.60;;
60726;SDS011;46577;49.004;12.120;2022-09-14T05:16:37;24.87;;;15.97;;
60726;SDS011;46577;49.004;12.120;2022-09-14T05:19:04;22.47;;;15.80;;
60726;SDS011;46577;49.004;12.120;2022-09-14T05:21:34;24.50;;;16.47;;
60726;SDS011;46577;49.004;12.120;2022-09-14T05:24:02;19.40;;;14.83;;
60726;SDS011;46577;49.004;12.120;2022-09-14T05:26:35;25.80;;;15.40;;
60726;SDS011;46577;49.004;12.120;2022-09-14T05:29:01;20.33;;;15.17;;
60726;SDS011;46577;49.004;12.120;2022-09-14T05:31:27;23.40;;;16.60;;
60726;SDS011;46577;49.004;12.120;2022-09-14T05:33:54;20.97;;;15.20;;
60726;SDS011;46577;49.004;12.120;2022-09-14T05:36:20;26.47;;;16.97;;
60726;SDS011;46577;49.004;12.120;2022-09-14T05:38:47;22.10;;;16.43;;
60726;SDS011;46577;49.004;12.120;2022-09-14T05:41:13;22.20;;;14.00;;
60726;SDS011;46577;49.004;12.120;2022-09-14T05:43:39;22.43;;;14.13;;
60726;SDS011;46577;49.004;12.120;2022-09-14T05:46:06;20.43;;;14.70;;
60726;SDS011;46577;49.004;12.120;2022-09-14T05:48:34;18.37;;;14.47;;
60726;SDS011;46577;49.004;12.120;2022-09-14T05:51:02;25.87;;;14.27;;
60726;SDS011;46577;49.004;12.120;2022-09-14T05:53:31;25.00;;;14.17;;
60726;SDS011;46577;49.004;12.120;2022-09-14T05:56:04;27.27;;;16.87;;
60726;SDS011;46577;49.004;12.120;2022-09-14T05:58:32;23.17;;;13.93;;
60726;SDS011;46577;49.004;12.120;2022-09-14T06:01:00;16.70;;;13.50;;
60726;SDS011;46577;49.004;12.120;2022-09-14T06:03:31;23.53;;;15.43;;
60726;SDS011;46577;49.004;12.120;2022-09-14T06:05:56;33.77;;;16.37;;
60726;SDS011;46577;49.004;12.120;2022-09-14T06:08:22;27.70;;;15.93;;
60726;SDS011;46577;49.004;12.120;2022-09-14T06:10:48;74.13;;;16.23;;
60726;SDS011;46577;49.004;12.120;2022-09-14T06:13:14;30.20;;;15.00;;
60726;SDS011;46577;49.004;12.120;2022-09-14T06:15:39;34.17;;;15.77;;
60726;SDS011;46577;49.004;12.120;2022-09-14T06:18:05;19.67;;;14.00;;
60726;SDS011;46577;49.004;12.120;2022-09-14T06:20:30;25.43;;;13.53;;
60726;SDS011;46577;49.004;12.120;2022-09-14T06:22:56;19.63;;;12.03;;
60726;SDS011;46577;49.004;12.120;2022-09-14T06:25:21;18.50;;;12.17;;
60726;SDS011;46577;49.004;12.120;2022-09-14T06:27:47;15.67;;;11.90;;
60726;SDS011;46577;49.004;12.120;2022-09-14T06:30:13;22.43;;;12.87;;
60726;SDS011;46577;49.004;12.120;2022-09-14T06:32:40;19.97;;;14.00;;
60726;SDS011;46577;49.004;12.120;2022-09-14T06:35:06;29.10;;;18.90;;
60726;SDS011;46577;49.004;12.120;2022-09-14T06:37:32;20.03;;;13.50;;
60726;SDS011;46577;49.004;12.120;2022-09-14T06:39:57;20.07;;;13.20;;
60726;SDS011;46577;49.004;12.120;2022-09-14T06:42:23;20.60;;;13.20;;
60726;SDS011;46577;49.004;12.120;2022-09-14T06:44:48;21.07;;;13.87;;
60726;SDS011;46577;49.004;12.120;2022-09-14T06:47:14;15.50;;;12.50;;
60726;SDS011;46577;49.004;12.120;2022-09-14T06:49:39;17.60;;;12.90;;
60726;SDS011;46577;49.004;12.120;2022-09-14T06:52:05;18.87;;;13.63;;
60726;SDS011;46577;49.004;12.120;2022-09-14T06:54:31;17.30;;;12.30;;
60726;SDS011;46577;49.004;12.120;2022-09-14T06:56:56;15.90;;;12.73;;
60726;SDS011;46577;49.004;12.120;2022-09-14T06:59:22;17.50;;;13.93;;
60726;SDS011;46577;49.004;12.120;2022-09-14T07:01:48;21.43;;;12.70;;
60726;SDS011;46577;49.004;12.120;2022-09-14T07:04:14;14.83;;;13.10;;
60726;SDS011;46577;49.004;12.120;2022-09-14T07:06:46;15.80;;;11.93;;
60726;SDS011;46577;49.004;12.120;2022-09-14T07:09:14;18.30;;;13.20;;
60726;SDS011;46577;49.004;12.120;2022-09-14T07:11:40;17.10;;;12.90;;
60726;SDS011;46577;49.004;12.120;2022-09-14T07:14:07;16.90;;;11.90;;
60726;SDS011;46577;49.004;12.120;2022-09-14T07:16:34;13.83;;;12.33;;
60726;SDS011;46577;49.004;12.120;2022-09-14T07:19:01;15.37;;;11.03;;
60726;SDS011;46577;49.004;12.120;2022-09-14T07:21:29;15.67;;;12.83;;
60726;SDS011;46577;49.004;12.120;2022-09-14T07:23:55;15.73;;;11.40;;
60726;SDS011;46577;49.004;12.120;2022-09-14T07:26:22;17.77;;;13.63;;
60726;SDS011;46577;49.004;12.120;2022-09-14T07:28:53;15.93;;;11.77;;
60726;SDS011;46577;49.004;12.120;2022-09-14T07:31:29;15.30;;;11.47;;
60726;SDS011;46577;49.004;12.120;2022-09-14T07:34:00;16.33;;;10.90;;
60726;SDS011;46577;49.004;12.120;2022-09-14T07:36:27;14.70;;;11.00;;
60726;SDS011;46577;49.004;12.120;2022-09-14T07:38:55;13.87;;;10.60;;
60726;SDS011;46577;49.004;12.120;2022-09-14T07:41:21;10.93;;;9.00;;
60726;SDS011;46577;49.004;12.120;2022-09-14T07:43:52;16.50;;;10.93;;
60726;SDS011;46577;49.004;12.120;2022-09-14T07:46:21;13.53;;;10.00;;
60726;SDS011;46577;49.004;12.120;2022-09-14T07:48:47;17.80;;;11.10;;
60726;SDS011;46577;49.004;12.120;2022-09-14T07:51:18;12.43;;;9.60;;
60726;SDS011;46577;49.004;12.120;2022-09-14T07:53:43;16.33;;;10.20;;
60726;SDS011;46577;49.004;12.120;2022-09-14T07:56:10;15.60;;;10.07;;
60726;SDS011;46577;49.004;12.120;2022-09-14T07:58:37;12.60;;;10.40;;
60726;SDS011;46577;49.004;12.120;2022-09-14T08:01:04;13.93;;;10.63;;
60726;SDS011;46577;49.004;12.120;2022-09-14T08:03:36;19.10;;;9.83;;
60726;SDS011;46577;49.004;12.120;2022-09-14T08:06:05;16.77;;;11.33;;
60726;SDS011;46577;49.004;12.120;2022-09-14T08:08:38;17.43;;;12.60;;
60726;SDS011;46577;49.004;12.120;2022-09-14T08:11:16;18.03;;;13.20;;
60726;SDS011;46577;49.004;12.120;2022-09-14T08:13:45;21.23;;;14.33;;
60726;SDS011;46577;49.004;12.120;2022-09-14T08:16:16;20.17;;;14.33;;
60726;SDS011;46577;49.004;12.120;2022-09-14T08:18:43;20.23;;;13.53;;
60726;SDS011;46577;49.004;12.120;2022-09-14T08:21:10;18.97;;;13.60;;
60726;SDS011;46577;49.004;12.120;2022-09-14T08:23:38;19.27;;;14.67;;
60726;SDS011;46577;49.004;12.120;2022-09-14T08:26:08;19.80;;;12.43;;
60726;SDS011;46577;49.004;12.120;2022-09-14T08:28:38;16.60;;;13.20;;
60726;SDS011;46577;49.004;12.120;2022-09-14T08:31:06;13.10;;;11.53;;
60726;SDS011;46577;49.004;12.120;2022-09-14T08:33:35;16.87;;;12.10;;
60726;SDS011;46577;49.004;12.120;2022-09-14T08:36:02;15.80;;;10.97;;
60726;SDS011;46577;49.004;12.120;2022-09-14T08:38:29;17.30;;;11.33;;
60726;SDS011;46577;49.004;12.120;2022-09-14T08:40:55;15.00;;;11.60;;
60726;SDS011;46577;49.004;12.120;2022-09-14T08:43:36;12.60;;;9.87;;
60726;SDS011;46577;49.004;12.120;2022-09-14T08:46:03;12.83;;;9.90;;
60726;SDS011;46577;49.004;12.120;2022-09-14T08:48:32;11.73;;;9.60;;
60726;SDS011;46577;49.004;12.120;2022-09-14T08:51:01;14.03;;;10.00;;
60726;SDS011;46577;49.004;12.120;2022-09-14T08:53:29;10.57;;;9.27;;
60726;SDS011;46577;49.004;12.120;2022-09-14T09:04:17;9.30;;;8.40;;
60726;SDS011;46577;49.004;12.120;2022-09-14T09:09:55;10.10;;;8.60;;
60726;SDS011;46577;49.004;12.120;2022-09-14T09:17:47;8.30;;;7.50;;
60726;SDS011;46577;49.004;12.120;2022-09-14T09:20:19;8.10;;;7.30;;
60726;SDS011;46577;49.004;12.120;2022-09-14T09:25:47;6.97;;;6.37;;
60726;SDS011;46577;49.004;12.120;2022-09-14T09:28:21;9.40;;;6.97;;
60726;SDS011;46577;49.004;12.120;2022-09-14T09:30:48;8.43;;;7.00;;
60726;SDS011;46577;49.004;12.120;2022-09-14T09:33:16;8.40;;;6.80;;
60726;SDS011;46577;49.004;12.120;2022-09-14T09:35:44;8.63;;;6.70;;
60726;SDS011;46577;49.004;12.120;2022-09-14T09:38:14;9.73;;;6.07;;
60726;SDS011;46577;49.004;12.120;2022-09-14T09:40:42;7.40;;;6.67;;
60726;SDS011;46577;49.004;12.120;2022-09-14T09:43:15;10.47;;;6.17;;
60726;SDS011;46577;49.004;12.120;2022-09-14T09:45:47;8.90;;;8.10;;
60726;SDS011;46577;49.004;12.120;2022-09-14T09:48:30;10.57;;;7.73;;
60726;SDS011;46577;49.004;12.120;2022-09-14T09:53:44;10.10;;;9.07;;
60726;SDS011;46577;49.004;12.120;2022-09-14T09:56:16;11.27;;;9.77;;
60726;SDS011;46577;49.004;12.120;2022-09-14T09:58:50;11.73;;;8.67;;
60726;SDS011;46577;49.004;12.120;2022-09-14T10:03:45;9.13;;;8.00;;
60726;SDS011;46577;49.004;12.120;2022-09-14T10:06:28;9.23;;;7.40;;
60726;SDS011;46577;49.004;12.120;2022-09-14T10:08:54;8.07;;;7.37;;
60726;SDS011;46577;49.004;12.120;2022-09-14T10:11:31;7.80;;;6.93;;
60726;SDS011;46577;49.004;12.120;2022-09-14T10:14:01;8.57;;;6.30;;
60726;SDS011;46577;49.004;12.120;2022-09-14T10:16:31;6.73;;;5.73;;
60726;SDS011;46577;49.004;12.120;2022-09-14T10:19:01;6.73;;;6.13;;
60726;SDS011;46577;49.004;12.120;2022-09-14T10:21:28;6.60;;;5.47;;
60726;SDS011;46577;49.004;12.120;2022-09-14T10:26:39;8.50;;;6.60;;
60726;SDS011;46577;49.004;12.120;2022-09-14T10:31:55;11.37;;;7.40;;
60726;SDS011;46577;49.004;12.120;2022-09-14T10:34:29;10.27;;;8.27;;
60726;SDS011;46577;49.004;12.120;2022-09-14T10:36:58;9.27;;;7.30;;
60726;SDS011;46577;49.004;12.120;2022-09-14T10:39:39;7.60;;;6.90;;
60726;SDS011;46577;49.004;12.120;2022-09-14T10:42:24;10.10;;;6.20;;
60726;SDS011;46577;49.004;12.120;2022-09-14T10:55:37;5.33;;;4.83;;
60726;SDS011;46577;49.004;12.120;2022-09-14T11:01:15;7.17;;;4.50;;
60726;SDS011;46577;49.004;12.120;2022-09-14T11:06:51;9.77;;;4.63;;
60726;SDS011;46577;49.004;12.120;2022-09-14T11:12:03;7.83;;;4.53;;
60726;SDS011;46577;49.004;12.120;2022-09-14T11:14:43;4.30;;;3.87;;
60726;SDS011;46577;49.004;12.120;2022-09-14T11:20:32;4.93;;;3.10;;
60726;SDS011;46577;49.004;12.120;2022-09-14T11:23:10;3.33;;;2.80;;
60726;SDS011;46577;49.004;12.120;2022-09-14T11:25:45;4.07;;;2.37;;
60726;SDS011;46577;49.004;12.120;2022-09-14T11:30:55;7.60;;;2.00;;
60726;SDS011;46577;49.004;12.120;2022-09-14T11:33:32;2.35;;;1.45;;
60726;SDS011;46577;49.004;12.120;2022-09-14T11:38:34;4.05;;;1.52;;
60726;SDS011;46577;49.004;12.120;2022-09-14T11:43:33;1.83;;;1.35;;
60726;SDS011;46577;49.004;12.120;2022-09-14T11:46:15;5.05;;;1.63;;
60726;SDS011;46577;49.004;12.120;2022-09-14T11:51:35;2.53;;;1.30;;
60726;SDS011;46577;49.004;12.120;2022-09-14T11:54:12;1.67;;;1.58;;
60726;SDS011;46577;49.004;12.120;2022-09-14T11:56:45;3.38;;;1.80;;
60726;SDS011;46577;49.004;12.120;2022-09-14T12:02:56;2.75;;;1.55;;
60726;SDS011;46577;49.004;12.120;2022-09-14T12:12:37;2.00;;;1.20;;
60726;SDS011;46577;49.004;12.120;2022-09-14T12:25:54;2.60;;;2.10;;
60726;SDS011;46577;49.004;12.120;2022-09-14T12:35:55;4.60;;;2.20;;
60726;SDS011;46577;49.004;12.120;2022-09-14T12:40:58;3.27;;;2.33;;
60726;SDS011;46577;49.004;12.120;2022-09-14T12:56:32;3.20;;;2.63;;
60726;SDS011;46577;49.004;12.120;2022-09-14T13:04:47;6.10;;;1.97;;
60726;SDS011;46577;49.004;12.120;2022-09-14T13:07:18;4.50;;;3.00;;
60726;SDS011;46577;49.004;12.120;2022-09-14T13:09:52;3.03;;;1.90;;
60726;SDS011;46577;49.004;12.120;2022-09-14T13:12:24;3.60;;;2.43;;
60726;SDS011;46577;49.004;12.120;2022-09-14T13:14:59;4.13;;;2.33;;
60726;SDS011;46577;49.004;12.120;2022-09-14T13:17:27;2.20;;;2.00;;
60726;SDS011;46577;49.004;12.120;2022-09-14T13:20:03;3.57;;;2.70;;
60726;SDS011;46577;49.004;12.120;2022-09-14T13:22:41;5.63;;;2.47;;
60726;SDS011;46577;49.004;12.120;2022-09-14T13:25:15;3.00;;;2.20;;
60726;SDS011;46577;49.004;12.120;2022-09-14T13:27:57;6.33;;;2.67;;
60726;SDS011;46577;49.004;12.120;2022-09-14T13:30:25;3.30;;;2.73;;
60726;SDS011;46577;49.004;12.120;2022-09-14T13:32:53;3.90;;;2.40;;
60726;SDS011;46577;49.004;12.120;2022-09-14T13:35:33;3.23;;;2.50;;
60726;SDS011;46577;49.004;12.120;2022-09-14T13:38:16;6.20;;;2.30;;
60726;SDS011;46577;49.004;12.120;2022-09-14T13:40:47;4.67;;;2.57;;
60726;SDS011;46577;49.004;12.120;2022-09-14T13:43:15;4.70;;;2.60;;
60726;SDS011;46577;49.004;12.120;2022-09-14T13:45:42;4.60;;;2.60;;
60726;SDS011;46577;49.004;12.120;2022-09-14T13:48:09;4.80;;;2.73;;
60726;SDS011;46577;49.004;12.120;2022-09-14T13:50:37;2.93;;;2.63;;
60726;SDS011;46577;49.004;12.120;2022-09-14T14:01:31;5.47;;;2.87;;
60726;SDS011;46577;49.004;12.120;2022-09-14T14:04:04;3.00;;;2.40;;
60726;SDS011;46577;49.004;12.120;2022-09-14T14:06:33;4.23;;;2.60;;
60726;SDS011;46577;49.004;12.120;2022-09-14T14:11:35;4.07;;;2.30;;
60726;SDS011;46577;49.004;12.120;2022-09-14T14:16:39;5.27;;;2.90;;
60726;SDS011;46577;49.004;12.120;2022-09-14T14:19:25;6.80;;;2.90;;
60726;SDS011;46577;49.004;12.120;2022-09-14T14:22:12;8.07;;;2.53;;
60726;SDS011;46577;49.004;12.120;2022-09-14T14:24:45;3.77;;;2.63;;
60726;SDS011;46577;49.004;12.120;2022-09-14T14:29:55;3.60;;;3.00;;
60726;SDS011;46577;49.004;12.120;2022-09-14T14:32:22;4.00;;;2.90;;
60726;SDS011;46577;49.004;12.120;2022-09-14T14:34:48;7.03;;;2.63;;
60726;SDS011;46577;49.004;12.120;2022-09-14T14:37:16;4.70;;;2.70;;
60726;SDS011;46577;49.004;12.120;2022-09-14T14:39:43;5.83;;;2.60;;
60726;SDS011;46577;49.004;12.120;2022-09-14T14:42:09;4.63;;;3.00;;
60726;SDS011;46577;49.004;12.120;2022-09-14T14:44:35;8.97;;;3.50;;
60726;SDS011;46577;49.004;12.120;2022-09-14T14:47:01;7.13;;;3.17;;
60726;SDS011;46577;49.004;12.120;2022-09-14T14:49:29;6.80;;;2.87;;
60726;SDS011;46577;49.004;12.120;2022-09-14T14:51:55;3.40;;;2.70;;
60726;SDS011;46577;49.004;12.120;2022-09-14T14:54:20;3.70;;;3.27;;
60726;SDS011;46577;49.004;12.120;2022-09-14T14:56:47;6.30;;;3.40;;
60726;SDS011;46577;49.004;12.120;2022-09-14T15:01:46;4.60;;;3.40;;
60726;SDS011;46577;49.004;12.120;2022-09-14T15:04:12;3.33;;;3.03;;
60726;SDS011;46577;49.004;12.120;2022-09-14T15:06:38;7.33;;;3.77;;
60726;SDS011;46577;49.004;12.120;2022-09-14T15:11:59;4.83;;;3.20;;
60726;SDS011;46577;49.004;12.120;2022-09-14T15:14:25;5.93;;;3.53;;
60726;SDS011;46577;49.004;12.120;2022-09-14T15:16:51;4.50;;;2.93;;
60726;SDS011;46577;49.004;12.120;2022-09-14T15:19:21;4.97;;;3.20;;
60726;SDS011;46577;49.004;12.120;2022-09-14T15:21:47;6.13;;;3.00;;
60726;SDS011;46577;49.004;12.120;2022-09-14T15:24:12;3.97;;;3.00;;
60726;SDS011;46577;49.004;12.120;2022-09-14T15:26:38;6.13;;;3.67;;
60726;SDS011;46577;49.004;12.120;2022-09-14T15:29:04;9.90;;;2.90;;
60726;SDS011;46577;49.004;12.120;2022-09-14T15:31:30;4.53;;;3.03;;
60726;SDS011;46577;49.004;12.120;2022-09-14T15:33:56;4.37;;;2.93;;
60726;SDS011;46577;49.004;12.120;2022-09-14T15:39:20;9.03;;;3.43;;
60726;SDS011;46577;49.004;12.120;2022-09-14T15:41:47;5.50;;;3.47;;
60726;SDS011;46577;49.004;12.120;2022-09-14T15:44:14;5.87;;;3.03;;
60726;SDS011;46577;49.004;12.120;2022-09-14T15:46:39;7.47;;;3.50;;
60726;SDS011;46577;49.004;12.120;2022-09-14T15:49:10;8.43;;;3.80;;
60726;SDS011;46577;49.004;12.120;2022-09-14T15:51:40;4.00;;;3.57;;
60726;SDS011;46577;49.004;12.120;2022-09-14T15:54:06;5.03;;;3.50;;
60726;SDS011;46577;49.004;12.120;2022-09-14T15:56:32;6.20;;;3.37;;
60726;SDS011;46577;49.004;12.120;2022-09-14T15:58:58;7.77;;;4.00;;
60726;SDS011;46577;49.004;12.120;2022-09-14T16:01:25;8.83;;;3.50;;
60726;SDS011;46577;49.004;12.120;2022-09-14T16:03:58;7.67;;;3.60;;
60726;SDS011;46577;49.004;12.120;2022-09-14T16:06:25;4.37;;;3.63;;
60726;SDS011;46577;49.004;12.120;2022-09-14T16:08:52;9.13;;;3.77;;
60726;SDS011;46577;49.004;12.120;2022-09-14T16:11:18;6.70;;;4.93;;
60726;SDS011;46577;49.004;12.120;2022-09-14T16:13:44;4.07;;;2.60;;
60726;SDS011;46577;49.004;12.120;2022-09-14T16:16:11;5.47;;;2.30;;
60726;SDS011;46577;49.004;12.120;2022-09-14T16:18:37;3.33;;;2.00;;
60726;SDS011;46577;49.004;12.120;2022-09-14T16:21:04;19.57;;;3.70;;
60726;SDS011;46577;49.004;12.120;2022-09-14T16:23:36;4.50;;;1.63;;
60726;SDS011;46577;49.004;12.120;2022-09-14T16:26:10;5.60;;;1.93;;
60726;SDS011;46577;49.004;12.120;2022-09-14T16:28:44;3.17;;;1.53;;
60726;SDS011;46577;49.004;12.120;2022-09-14T16:31:12;5.57;;;1.70;;
60726;SDS011;46577;49.004;12.120;2022-09-14T16:33:42;4.43;;;1.90;;
60726;SDS011;46577;49.004;12.120;2022-09-14T16:36:13;1.73;;;1.30;;
60726;SDS011;46577;49.004;12.120;2022-09-14T16:38:41;3.33;;;1.80;;
60726;SDS011;46577;49.004;12.120;2022-09-14T16:41:08;6.53;;;1.63;;
60726;SDS011;46577;49.004;12.120;2022-09-14T16:43:34;6.00;;;2.10;;
60726;SDS011;46577;49.004;12.120;2022-09-14T16:46:07;11.07;;;1.70;;
60726;SDS011;46577;49.004;12.120;2022-09-14T16:48:35;6.87;;;2.30;;
60726;SDS011;46577;49.004;12.120;2022-09-14T16:51:03;5.77;;;2.10;;
60726;SDS011;46577;49.004;12.120;2022-09-14T16:53:29;3.30;;;1.80;;
60726;SDS011;46577;49.004;12.120;2022-09-14T16:56:01;10.70;;;2.50;;
60726;SDS011;46577;49.004;12.120;2022-09-14T16:58:28;5.67;;;2.37;;
60726;SDS011;46577;49.004;12.120;2022-09-14T17:00:54;4.10;;;1.97;;
60726;SDS011;46577;49.004;12.120;2022-09-14T17:03:20;4.57;;;1.83;;
60726;SDS011;46577;49.004;12.120;2022-09-14T17:05:45;4.10;;;2.27;;
60726;SDS011;46577;49.004;12.120;2022-09-14T17:08:11;3.23;;;1.90;;
60726;SDS011;46577;49.004;12.120;2022-09-14T17:10:36;3.53;;;2.33;;
60726;SDS011;46577;49.004;12.120;2022-09-14T17:13:02;4.20;;;2.30;;
60726;SDS011;46577;49.004;12.120;2022-09-14T17:15:28;9.70;;;2.13;;
60726;SDS011;46577;49.004;12.120;2022-09-14T17:17:55;3.87;;;2.17;;
60726;SDS011;46577;49.004;12.120;2022-09-14T17:20:20;4.00;;;2.00;;
60726;SDS011;46577;49.004;12.120;2022-09-14T17:22:46;10.60;;;2.27;;
60726;SDS011;46577;49.004;12.120;2022-09-14T17:25:12;4.53;;;2.70;;
60726;SDS011;46577;49.004;12.120;2022-09-14T17:27:38;8.37;;;3.03;;
60726;SDS011;46577;49.004;12.120;2022-09-14T17:30:04;5.20;;;2.60;;
60726;SDS011;46577;49.004;12.120;2022-09-14T17:32:30;5.40;;;3.53;;
60726;SDS011;46577;49.004;12.120;2022-09-14T17:34:57;5.43;;;2.63;;